sensor_id;sensor_type;location;lat;lon;timestamp;temperature;humidity
46676;DHT22;32412;51.478;5.694;2023-03-20T00:02:19;8.80;99.90
46676;DHT22;32412;51.478;5.694;2023-03-20T00:04:46;8.80;99.90
46676;DHT22;32412;51.478;5.694;2023-03-20T00:07:14;8.80;99.90
46676;DHT22;32412;51.478;5.694;2023-03-20T00:09:43;8.90;99.90
46676;DHT22;32412;51.478;5.694;2023-03-20T00:12:14;8.90;99.90
46676;DHT22;32412;51.478;5.694;2023-03-20T00:14:41;8.80;99.90
46676;DHT22;32412;51.478;5.694;2023-03-20T00:17:16;8.90;99.90
46676;DHT22;32412;51.478;5.694;2023-03-20T00:19:44;8.80;99.90
46676;DHT22;32412;51.478;5.694;2023-03-20T00:22:10;8.80;99.90
46676;DHT22;32412;51.478;5.694;2023-03-20T00:24:37;8.90;99.90
46676;DHT22;32412;51.478;5.694;2023-03-20T00:27:03;8.90;99.90
46676;DHT22;32412;51.478;5.694;2023-03-20T00:29:33;8.90;99.90
46676;DHT22;32412;51.478;5.694;2023-03-20T00:31:59;8.90;99.90
46676;DHT22;32412;51.478;5.694;2023-03-20T00:34:28;8.90;99.90
46676;DHT22;32412;51.478;5.694;2023-03-20T00:36:56;8.90;99.90
46676;DHT22;32412;51.478;5.694;2023-03-20T00:39:25;8.80;99.90
46676;DHT22;32412;51.478;5.694;2023-03-20T00:42:03;8.80;99.90
46676;DHT22;32412;51.478;5.694;2023-03-20T00:44:49;8.80;99.90
46676;DHT22;32412;51.478;5.694;2023-03-20T00:47:20;8.80;99.90
46676;DHT22;32412;51.478;5.694;2023-03-20T00:49:53;8.90;99.90
46676;DHT22;32412;51.478;5.694;2023-03-20T00:52:20;8.80;99.90
46676;DHT22;32412;51.478;5.694;2023-03-20T00:54:46;8.80;99.90
46676;DHT22;32412;51.478;5.694;2023-03-20T01:00:07;8.80;99.90
46676;DHT22;32412;51.478;5.694;2023-03-20T01:02:41;8.70;99.90
46676;DHT22;32412;51.478;5.694;2023-03-20T01:05:09;8.70;99.90
46676;DHT22;32412;51.478;5.694;2023-03-20T01:07:35;8.70;99.90
46676;DHT22;32412;51.478;5.694;2023-03-20T01:10:01;8.70;99.90
46676;DHT22;32412;51.478;5.694;2023-03-20T01:12:27;8.60;99.90
46676;DHT22;32412;51.478;5.694;2023-03-20T01:15:01;8.50;99.90
46676;DHT22;32412;51.478;5.694;2023-03-20T01:17:27;8.50;99.90
46676;DHT22;32412;51.478;5.694;2023-03-20T01:19:54;8.50;99.90
46676;DHT22;32412;51.478;5.694;2023-03-20T01:22:20;8.50;99.90
46676;DHT22;32412;51.478;5.694;2023-03-20T01:24:46;8.50;99.90
46676;DHT22;32412;51.478;5.694;2023-03-20T01:27:18;8.40;99.90
46676;DHT22;32412;51.478;5.694;2023-03-20T01:29:48;8.30;99.90
46676;DHT22;32412;51.478;5.694;2023-03-20T01:32:18;8.30;99.90
46676;DHT22;32412;51.478;5.694;2023-03-20T01:34:46;8.20;99.90
46676;DHT22;32412;51.478;5.694;2023-03-20T01:37:17;8.10;99.90
46676;DHT22;32412;51.478;5.694;2023-03-20T01:39:45;8.00;99.90
46676;DHT22;32412;51.478;5.694;2023-03-20T01:42:14;7.90;99.90
46676;DHT22;32412;51.478;5.694;2023-03-20T01:44:40;7.80;99.90
46676;DHT22;32412;51.478;5.694;2023-03-20T01:47:17;7.80;99.90
46676;DHT22;32412;51.478;5.694;2023-03-20T01:50:19;7.80;99.90
46676;DHT22;32412;51.478;5.694;2023-03-20T01:52:49;7.70;99.90
46676;DHT22;32412;51.478;5.694;2023-03-20T01:55:17;7.60;99.90
46676;DHT22;32412;51.478;5.694;2023-03-20T01:57:43;7.60;99.90
46676;DHT22;32412;51.478;5.694;2023-03-20T02:00:12;7.60;99.90
46676;DHT22;32412;51.478;5.694;2023-03-20T02:02:40;7.50;99.90
46676;DHT22;32412;51.478;5.694;2023-03-20T02:05:09;7.50;99.90
46676;DHT22;32412;51.478;5.694;2023-03-20T02:07:36;7.40;99.90
46676;DHT22;32412;51.478;5.694;2023-03-20T02:10:11;7.40;99.90
46676;DHT22;32412;51.478;5.694;2023-03-20T02:12:37;7.40;99.90
46676;DHT22;32412;51.478;5.694;2023-03-20T02:15:05;7.30;99.90
46676;DHT22;32412;51.478;5.694;2023-03-20T02:17:32;7.30;99.90
46676;DHT22;32412;51.478;5.694;2023-03-20T02:20:03;7.30;99.90
46676;DHT22;32412;51.478;5.694;2023-03-20T02:40:13;7.00;99.90
46676;DHT22;32412;51.478;5.694;2023-03-20T02:43:42;7.00;99.90
46676;DHT22;32412;51.478;5.694;2023-03-20T02:48:35;6.90;99.90
46676;DHT22;32412;51.478;5.694;2023-03-20T02:53:54;7.00;99.90
46676;DHT22;32412;51.478;5.694;2023-03-20T02:56:36;7.00;99.90
46676;DHT22;32412;51.478;5.694;2023-03-20T03:01:55;7.00;99.90
46676;DHT22;32412;51.478;5.694;2023-03-20T03:04:25;7.00;99.90
46676;DHT22;32412;51.478;5.694;2023-03-20T03:06:53;7.10;99.90
46676;DHT22;32412;51.478;5.694;2023-03-20T03:09:34;7.10;99.90
46676;DHT22;32412;51.478;5.694;2023-03-20T03:12:29;7.10;99.90
46676;DHT22;32412;51.478;5.694;2023-03-20T03:15:01;7.00;99.90
46676;DHT22;32412;51.478;5.694;2023-03-20T03:17:32;7.00;99.90
46676;DHT22;32412;51.478;5.694;2023-03-20T03:20:04;7.00;99.90
46676;DHT22;32412;51.478;5.694;2023-03-20T03:22:33;6.90;99.90
46676;DHT22;32412;51.478;5.694;2023-03-20T03:25:02;6.80;99.90
46676;DHT22;32412;51.478;5.694;2023-03-20T03:27:36;6.80;99.90
46676;DHT22;32412;51.478;5.694;2023-03-20T03:30:15;6.80;99.90
46676;DHT22;32412;51.478;5.694;2023-03-20T03:35:28;6.70;99.90
46676;DHT22;32412;51.478;5.694;2023-03-20T03:43:34;6.60;99.90
46676;DHT22;32412;51.478;5.694;2023-03-20T03:46:13;6.60;99.90
46676;DHT22;32412;51.478;5.694;2023-03-20T03:48:49;6.60;99.90
46676;DHT22;32412;51.478;5.694;2023-03-20T03:51:19;6.60;99.90
46676;DHT22;32412;51.478;5.694;2023-03-20T03:53:53;6.60;99.90
46676;DHT22;32412;51.478;5.694;2023-03-20T03:56:23;6.60;99.90
46676;DHT22;32412;51.478;5.694;2023-03-20T03:58:53;6.60;99.90
46676;DHT22;32412;51.478;5.694;2023-03-20T04:01:22;6.60;99.90
46676;DHT22;32412;51.478;5.694;2023-03-20T04:03:52;6.50;99.90
46676;DHT22;32412;51.478;5.694;2023-03-20T04:06:19;6.60;99.90
46676;DHT22;32412;51.478;5.694;2023-03-20T04:08:45;6.60;99.90
46676;DHT22;32412;51.478;5.694;2023-03-20T04:11:22;6.50;99.90
46676;DHT22;32412;51.478;5.694;2023-03-20T04:13:50;6.50;99.90
46676;DHT22;32412;51.478;5.694;2023-03-20T04:16:18;6.50;99.90
46676;DHT22;32412;51.478;5.694;2023-03-20T04:18:44;6.50;99.90
46676;DHT22;32412;51.478;5.694;2023-03-20T04:21:10;6.40;99.90
46676;DHT22;32412;51.478;5.694;2023-03-20T04:23:36;6.40;99.90
46676;DHT22;32412;51.478;5.694;2023-03-20T04:26:02;6.40;99.90
46676;DHT22;32412;51.478;5.694;2023-03-20T04:28:28;6.30;99.90
46676;DHT22;32412;51.478;5.694;2023-03-20T04:30:55;6.20;99.90
46676;DHT22;32412;51.478;5.694;2023-03-20T04:33:22;6.30;99.90
46676;DHT22;32412;51.478;5.694;2023-03-20T04:35:48;6.30;99.90
46676;DHT22;32412;51.478;5.694;2023-03-20T04:38:14;6.30;99.90
46676;DHT22;32412;51.478;5.694;2023-03-20T04:40:40;6.20;99.90
46676;DHT22;32412;51.478;5.694;2023-03-20T04:43:06;6.20;99.90
46676;DHT22;32412;51.478;5.694;2023-03-20T04:45:32;6.20;99.90
46676;DHT22;32412;51.478;5.694;2023-03-20T04:47:58;6.10;99.90
46676;DHT22;32412;51.478;5.694;2023-03-20T04:50:26;6.20;99.90
46676;DHT22;32412;51.478;5.694;2023-03-20T04:52:52;6.20;99.90
46676;DHT22;32412;51.478;5.694;2023-03-20T04:55:18;6.10;99.90
46676;DHT22;32412;51.478;5.694;2023-03-20T04:57:44;6.10;99.90
46676;DHT22;32412;51.478;5.694;2023-03-20T05:00:10;6.00;99.90
46676;DHT22;32412;51.478;5.694;2023-03-20T05:02:36;6.10;99.90
46676;DHT22;32412;51.478;5.694;2023-03-20T05:05:02;6.10;99.90
46676;DHT22;32412;51.478;5.694;2023-03-20T05:07:28;6.10;99.90
46676;DHT22;32412;51.478;5.694;2023-03-20T05:09:54;6.10;99.90
46676;DHT22;32412;51.478;5.694;2023-03-20T05:12:20;6.10;99.90
46676;DHT22;32412;51.478;5.694;2023-03-20T05:14:47;6.20;99.90
46676;DHT22;32412;51.478;5.694;2023-03-20T05:17:13;6.20;99.90
46676;DHT22;32412;51.478;5.694;2023-03-20T05:19:40;6.20;99.90
46676;DHT22;32412;51.478;5.694;2023-03-20T05:22:10;6.20;99.90
46676;DHT22;32412;51.478;5.694;2023-03-20T05:24:36;6.30;99.90
46676;DHT22;32412;51.478;5.694;2023-03-20T05:27:02;6.30;99.90
46676;DHT22;32412;51.478;5.694;2023-03-20T05:29:30;6.30;99.90
46676;DHT22;32412;51.478;5.694;2023-03-20T05:31:58;6.30;99.90
46676;DHT22;32412;51.478;5.694;2023-03-20T05:34:24;6.30;99.90
46676;DHT22;32412;51.478;5.694;2023-03-20T05:36:50;6.40;99.90
46676;DHT22;32412;51.478;5.694;2023-03-20T05:39:16;6.40;99.90
46676;DHT22;32412;51.478;5.694;2023-03-20T05:41:42;6.40;99.90
46676;DHT22;32412;51.478;5.694;2023-03-20T05:44:08;6.40;99.90
46676;DHT22;32412;51.478;5.694;2023-03-20T05:46:34;6.40;99.90
46676;DHT22;32412;51.478;5.694;2023-03-20T05:49:03;6.40;99.90
46676;DHT22;32412;51.478;5.694;2023-03-20T05:51:31;6.50;99.90
46676;DHT22;32412;51.478;5.694;2023-03-20T05:53:57;6.50;99.90
46676;DHT22;32412;51.478;5.694;2023-03-20T05:56:24;6.50;99.90
46676;DHT22;32412;51.478;5.694;2023-03-20T05:58:58;6.60;99.90
46676;DHT22;32412;51.478;5.694;2023-03-20T06:01:26;6.60;99.90
46676;DHT22;32412;51.478;5.694;2023-03-20T06:03:52;6.60;99.90
46676;DHT22;32412;51.478;5.694;2023-03-20T06:06:24;6.60;99.90
46676;DHT22;32412;51.478;5.694;2023-03-20T06:08:50;6.60;99.90
46676;DHT22;32412;51.478;5.694;2023-03-20T06:11:19;6.60;99.90
46676;DHT22;32412;51.478;5.694;2023-03-20T06:13:46;6.70;99.90
46676;DHT22;32412;51.478;5.694;2023-03-20T06:16:15;6.70;99.90
46676;DHT22;32412;51.478;5.694;2023-03-20T06:18:41;6.80;99.90
46676;DHT22;32412;51.478;5.694;2023-03-20T06:21:09;6.80;99.90
46676;DHT22;32412;51.478;5.694;2023-03-20T06:23:37;6.80;99.90
46676;DHT22;32412;51.478;5.694;2023-03-20T06:26:03;6.90;99.90
46676;DHT22;32412;51.478;5.694;2023-03-20T06:28:32;6.90;99.90
46676;DHT22;32412;51.478;5.694;2023-03-20T06:30:58;6.90;99.90
46676;DHT22;32412;51.478;5.694;2023-03-20T06:33:24;7.00;99.90
46676;DHT22;32412;51.478;5.694;2023-03-20T06:35:50;7.00;99.90
46676;DHT22;32412;51.478;5.694;2023-03-20T06:38:16;7.00;99.90
46676;DHT22;32412;51.478;5.694;2023-03-20T06:40:42;7.00;99.90
46676;DHT22;32412;51.478;5.694;2023-03-20T06:43:09;7.00;99.90
46676;DHT22;32412;51.478;5.694;2023-03-20T06:45:37;7.20;99.90
46676;DHT22;32412;51.478;5.694;2023-03-20T06:51:44;7.20;99.90
46676;DHT22;32412;51.478;5.694;2023-03-20T06:54:18;7.30;99.90
46676;DHT22;32412;51.478;5.694;2023-03-20T06:56:44;7.30;99.90
46676;DHT22;32412;51.478;5.694;2023-03-20T06:59:10;7.40;99.90
46676;DHT22;32412;51.478;5.694;2023-03-20T07:01:38;7.40;99.90
46676;DHT22;32412;51.478;5.694;2023-03-20T07:04:04;7.50;99.90
46676;DHT22;32412;51.478;5.694;2023-03-20T07:06:30;7.50;99.90
46676;DHT22;32412;51.478;5.694;2023-03-20T07:08:56;7.60;99.90
46676;DHT22;32412;51.478;5.694;2023-03-20T07:11:22;7.60;99.90
46676;DHT22;32412;51.478;5.694;2023-03-20T07:17:12;7.70;99.90
46676;DHT22;32412;51.478;5.694;2023-03-20T07:19:38;7.80;99.90
46676;DHT22;32412;51.478;5.694;2023-03-20T07:22:18;7.80;99.90
46676;DHT22;32412;51.478;5.694;2023-03-20T07:24:48;7.90;99.90
46676;DHT22;32412;51.478;5.694;2023-03-20T07:33:42;8.00;99.90
46676;DHT22;32412;51.478;5.694;2023-03-20T07:36:08;8.10;99.90
46676;DHT22;32412;51.478;5.694;2023-03-20T07:38:42;8.10;99.90
46676;DHT22;32412;51.478;5.694;2023-03-20T07:41:08;8.10;99.90
46676;DHT22;32412;51.478;5.694;2023-03-20T07:43:36;8.10;99.90
46676;DHT22;32412;51.478;5.694;2023-03-20T07:46:03;8.20;99.90
46676;DHT22;32412;51.478;5.694;2023-03-20T07:48:31;8.10;99.90
46676;DHT22;32412;51.478;5.694;2023-03-20T07:51:01;8.20;99.90
46676;DHT22;32412;51.478;5.694;2023-03-20T07:53:38;8.20;99.90
46676;DHT22;32412;51.478;5.694;2023-03-20T07:56:04;8.30;99.90
46676;DHT22;32412;51.478;5.694;2023-03-20T07:58:29;8.40;99.90
46676;DHT22;32412;51.478;5.694;2023-03-20T08:00:56;8.50;99.90
46676;DHT22;32412;51.478;5.694;2023-03-20T08:03:24;8.50;99.90
46676;DHT22;32412;51.478;5.694;2023-03-20T08:05:50;8.50;99.90
46676;DHT22;32412;51.478;5.694;2023-03-20T08:08:16;8.60;99.90
46676;DHT22;32412;51.478;5.694;2023-03-20T08:10:51;8.50;99.90
46676;DHT22;32412;51.478;5.694;2023-03-20T08:13:22;8.60;99.90
46676;DHT22;32412;51.478;5.694;2023-03-20T08:16:06;8.60;99.90
46676;DHT22;32412;51.478;5.694;2023-03-20T08:18:38;8.60;99.90
46676;DHT22;32412;51.478;5.694;2023-03-20T08:21:04;8.60;99.90
46676;DHT22;32412;51.478;5.694;2023-03-20T08:23:33;8.50;99.90
46676;DHT22;32412;51.478;5.694;2023-03-20T08:26:01;8.50;99.90
46676;DHT22;32412;51.478;5.694;2023-03-20T08:28:27;8.60;99.90
46676;DHT22;32412;51.478;5.694;2023-03-20T08:31:19;8.60;99.90
46676;DHT22;32412;51.478;5.694;2023-03-20T08:33:48;8.60;99.90
46676;DHT22;32412;51.478;5.694;2023-03-20T08:36:17;8.60;99.90
46676;DHT22;32412;51.478;5.694;2023-03-20T08:38:47;8.60;99.90
46676;DHT22;32412;51.478;5.694;2023-03-20T08:41:14;8.60;99.90
46676;DHT22;32412;51.478;5.694;2023-03-20T08:43:46;8.70;99.90
46676;DHT22;32412;51.478;5.694;2023-03-20T08:49:12;8.60;99.90
46676;DHT22;32412;51.478;5.694;2023-03-20T08:52:05;8.60;99.90
46676;DHT22;32412;51.478;5.694;2023-03-20T08:54:30;8.60;99.90
46676;DHT22;32412;51.478;5.694;2023-03-20T08:56:56;8.70;99.90
46676;DHT22;32412;51.478;5.694;2023-03-20T08:59:42;8.70;99.90
46676;DHT22;32412;51.478;5.694;2023-03-20T09:02:10;8.80;99.90
46676;DHT22;32412;51.478;5.694;2023-03-20T09:04:45;8.90;99.90
46676;DHT22;32412;51.478;5.694;2023-03-20T09:07:34;9.00;99.90
46676;DHT22;32412;51.478;5.694;2023-03-20T09:10:00;9.00;99.90
46676;DHT22;32412;51.478;5.694;2023-03-20T09:15:51;9.10;99.90
46676;DHT22;32412;51.478;5.694;2023-03-20T09:18:37;9.10;99.90
46676;DHT22;32412;51.478;5.694;2023-03-20T09:21:02;9.10;99.90
46676;DHT22;32412;51.478;5.694;2023-03-20T09:23:30;9.10;99.90
46676;DHT22;32412;51.478;5.694;2023-03-20T09:25:59;9.10;99.90
46676;DHT22;32412;51.478;5.694;2023-03-20T09:28:25;9.10;99.90
46676;DHT22;32412;51.478;5.694;2023-03-20T09:30:58;9.20;99.90
46676;DHT22;32412;51.478;5.694;2023-03-20T09:36:49;9.20;99.90
46676;DHT22;32412;51.478;5.694;2023-03-20T09:39:23;9.20;99.90
46676;DHT22;32412;51.478;5.694;2023-03-20T09:41:52;9.10;99.90
46676;DHT22;32412;51.478;5.694;2023-03-20T09:50:07;8.70;99.90
46676;DHT22;32412;51.478;5.694;2023-03-20T09:53:21;8.50;99.90
46676;DHT22;32412;51.478;5.694;2023-03-20T09:55:56;8.20;99.90
46676;DHT22;32412;51.478;5.694;2023-03-20T09:58:28;8.00;99.90
46676;DHT22;32412;51.478;5.694;2023-03-20T10:00:58;7.90;99.90
46676;DHT22;32412;51.478;5.694;2023-03-20T10:06:13;7.80;99.90
46676;DHT22;32412;51.478;5.694;2023-03-20T10:08:43;7.70;99.90
46676;DHT22;32412;51.478;5.694;2023-03-20T10:11:37;7.80;99.90
46676;DHT22;32412;51.478;5.694;2023-03-20T10:16:59;8.10;99.90
46676;DHT22;32412;51.478;5.694;2023-03-20T10:19:43;8.20;99.90
46676;DHT22;32412;51.478;5.694;2023-03-20T10:22:25;8.20;99.90
46676;DHT22;32412;51.478;5.694;2023-03-20T10:27:33;8.30;99.90
46676;DHT22;32412;51.478;5.694;2023-03-20T10:36:50;8.30;99.90
46676;DHT22;32412;51.478;5.694;2023-03-20T10:43:31;8.50;99.90
46676;DHT22;32412;51.478;5.694;2023-03-20T10:52:33;8.70;99.90
46676;DHT22;32412;51.478;5.694;2023-03-20T10:55:13;8.80;99.90
46676;DHT22;32412;51.478;5.694;2023-03-20T10:57:45;8.90;99.90
46676;DHT22;32412;51.478;5.694;2023-03-20T11:00:33;8.80;99.90
46676;DHT22;32412;51.478;5.694;2023-03-20T11:03:04;8.80;99.90
46676;DHT22;32412;51.478;5.694;2023-03-20T11:05:33;8.90;99.90
46676;DHT22;32412;51.478;5.694;2023-03-20T11:08:06;8.80;99.90
46676;DHT22;32412;51.478;5.694;2023-03-20T11:10:36;8.70;99.90
46676;DHT22;32412;51.478;5.694;2023-03-20T11:15:44;8.90;99.90
46676;DHT22;32412;51.478;5.694;2023-03-20T11:18:14;8.90;99.90
46676;DHT22;32412;51.478;5.694;2023-03-20T11:23:18;9.00;99.90
46676;DHT22;32412;51.478;5.694;2023-03-20T11:25:52;9.10;99.90
46676;DHT22;32412;51.478;5.694;2023-03-20T11:36:36;9.40;99.90
46676;DHT22;32412;51.478;5.694;2023-03-20T11:39:42;9.50;99.90
46676;DHT22;32412;51.478;5.694;2023-03-20T11:42:23;9.60;99.90
46676;DHT22;32412;51.478;5.694;2023-03-20T11:45:00;9.60;99.90
46676;DHT22;32412;51.478;5.694;2023-03-20T11:47:33;9.60;99.90
46676;DHT22;32412;51.478;5.694;2023-03-20T11:50:02;9.70;99.90
46676;DHT22;32412;51.478;5.694;2023-03-20T11:52:36;9.80;99.90
46676;DHT22;32412;51.478;5.694;2023-03-20T11:55:24;9.90;99.90
46676;DHT22;32412;51.478;5.694;2023-03-20T11:57:58;10.00;99.90
46676;DHT22;32412;51.478;5.694;2023-03-20T12:00:37;10.30;99.90
46676;DHT22;32412;51.478;5.694;2023-03-20T12:06:18;10.80;99.90
46676;DHT22;32412;51.478;5.694;2023-03-20T12:09:00;10.80;99.90
46676;DHT22;32412;51.478;5.694;2023-03-20T12:11:44;10.90;99.90
46676;DHT22;32412;51.478;5.694;2023-03-20T12:14:24;10.70;99.90
46676;DHT22;32412;51.478;5.694;2023-03-20T12:17:15;10.60;99.90
46676;DHT22;32412;51.478;5.694;2023-03-20T12:19:45;10.40;99.90
46676;DHT22;32412;51.478;5.694;2023-03-20T12:22:25;10.20;99.90
46676;DHT22;32412;51.478;5.694;2023-03-20T12:27:39;10.40;99.90
46676;DHT22;32412;51.478;5.694;2023-03-20T12:30:24;10.40;99.90
46676;DHT22;32412;51.478;5.694;2023-03-20T12:32:58;10.40;99.90
46676;DHT22;32412;51.478;5.694;2023-03-20T12:35:29;10.70;99.90
46676;DHT22;32412;51.478;5.694;2023-03-20T12:37:55;10.70;99.90
46676;DHT22;32412;51.478;5.694;2023-03-20T12:40:45;10.70;99.90
46676;DHT22;32412;51.478;5.694;2023-03-20T12:43:25;10.80;99.90
46676;DHT22;32412;51.478;5.694;2023-03-20T12:46:42;10.70;99.90
46676;DHT22;32412;51.478;5.694;2023-03-20T12:55:01;10.40;99.90
46676;DHT22;32412;51.478;5.694;2023-03-20T13:00:39;10.30;99.90
46676;DHT22;32412;51.478;5.694;2023-03-20T13:06:06;10.30;99.90
46676;DHT22;32412;51.478;5.694;2023-03-20T13:09:00;10.30;99.90
46676;DHT22;32412;51.478;5.694;2023-03-20T13:11:57;10.40;99.90
46676;DHT22;32412;51.478;5.694;2023-03-20T13:20:16;10.20;99.90
46676;DHT22;32412;51.478;5.694;2023-03-20T13:40:18;10.10;99.90
46676;DHT22;32412;51.478;5.694;2023-03-20T13:45:33;10.20;99.90
46676;DHT22;32412;51.478;5.694;2023-03-20T13:51:22;10.20;99.90
46676;DHT22;32412;51.478;5.694;2023-03-20T14:05:38;10.20;99.90
46676;DHT22;32412;51.478;5.694;2023-03-20T14:08:22;10.30;99.90
46676;DHT22;32412;51.478;5.694;2023-03-20T14:11:04;10.30;99.90
46676;DHT22;32412;51.478;5.694;2023-03-20T14:13:31;10.30;99.90
46676;DHT22;32412;51.478;5.694;2023-03-20T14:16:07;10.30;99.90
46676;DHT22;32412;51.478;5.694;2023-03-20T14:18:35;10.30;99.90
46676;DHT22;32412;51.478;5.694;2023-03-20T14:21:12;10.30;99.90
46676;DHT22;32412;51.478;5.694;2023-03-20T14:23:43;10.40;99.90
46676;DHT22;32412;51.478;5.694;2023-03-20T14:26:29;10.40;99.90
46676;DHT22;32412;51.478;5.694;2023-03-20T14:31:24;10.40;99.90
46676;DHT22;32412;51.478;5.694;2023-03-20T14:36:59;10.40;99.90
46676;DHT22;32412;51.478;5.694;2023-03-20T14:39:50;10.40;99.90
46676;DHT22;32412;51.478;5.694;2023-03-20T14:51:06;10.60;99.90
46676;DHT22;32412;51.478;5.694;2023-03-20T14:53:33;10.50;99.90
46676;DHT22;32412;51.478;5.694;2023-03-20T14:56:06;10.30;99.90
46676;DHT22;32412;51.478;5.694;2023-03-20T14:58:51;10.20;99.90
46676;DHT22;32412;51.478;5.694;2023-03-20T15:04:04;10.20;99.90
46676;DHT22;32412;51.478;5.694;2023-03-20T15:06:32;10.00;99.90
46676;DHT22;32412;51.478;5.694;2023-03-20T15:09:04;10.00;99.90
46676;DHT22;32412;51.478;5.694;2023-03-20T15:11:32;10.00;99.90
46676;DHT22;32412;51.478;5.694;2023-03-20T15:14:00;10.10;99.90
46676;DHT22;32412;51.478;5.694;2023-03-20T15:16:34;10.10;99.90
46676;DHT22;32412;51.478;5.694;2023-03-20T15:19:00;10.20;99.90
46676;DHT22;32412;51.478;5.694;2023-03-20T15:21:47;10.30;99.90
46676;DHT22;32412;51.478;5.694;2023-03-20T15:24:20;10.30;99.90
46676;DHT22;32412;51.478;5.694;2023-03-20T15:26:51;10.30;99.90
46676;DHT22;32412;51.478;5.694;2023-03-20T15:29:17;10.40;99.90
46676;DHT22;32412;51.478;5.694;2023-03-20T15:31:43;10.50;99.90
46676;DHT22;32412;51.478;5.694;2023-03-20T15:34:18;10.60;99.90
46676;DHT22;32412;51.478;5.694;2023-03-20T15:36:46;10.70;99.90
46676;DHT22;32412;51.478;5.694;2023-03-20T15:39:19;10.70;99.90
46676;DHT22;32412;51.478;5.694;2023-03-20T15:42:01;10.80;99.90
46676;DHT22;32412;51.478;5.694;2023-03-20T15:44:36;10.80;99.90
46676;DHT22;32412;51.478;5.694;2023-03-20T15:47:17;10.70;99.90
46676;DHT22;32412;51.478;5.694;2023-03-20T15:49:59;10.70;99.90
46676;DHT22;32412;51.478;5.694;2023-03-20T15:52:42;10.60;99.90
46676;DHT22;32412;51.478;5.694;2023-03-20T15:55:15;10.60;99.90
46676;DHT22;32412;51.478;5.694;2023-03-20T15:57:43;10.60;99.90
46676;DHT22;32412;51.478;5.694;2023-03-20T16:00:24;10.50;99.90
46676;DHT22;32412;51.478;5.694;2023-03-20T16:02:54;10.60;99.90
46676;DHT22;32412;51.478;5.694;2023-03-20T16:05:25;10.50;99.90
46676;DHT22;32412;51.478;5.694;2023-03-20T16:07:51;10.60;99.90
46676;DHT22;32412;51.478;5.694;2023-03-20T16:10:31;10.60;99.90
46676;DHT22;32412;51.478;5.694;2023-03-20T16:13:01;10.60;99.90
46676;DHT22;32412;51.478;5.694;2023-03-20T16:15:29;10.60;99.90
46676;DHT22;32412;51.478;5.694;2023-03-20T16:18:03;10.60;99.90
46676;DHT22;32412;51.478;5.694;2023-03-20T16:20:36;10.60;99.90
46676;DHT22;32412;51.478;5.694;2023-03-20T16:23:05;10.60;99.90
46676;DHT22;32412;51.478;5.694;2023-03-20T16:25:33;10.60;99.90
46676;DHT22;32412;51.478;5.694;2023-03-20T16:28:00;10.60;99.90
46676;DHT22;32412;51.478;5.694;2023-03-20T16:30:31;10.60;99.90
46676;DHT22;32412;51.478;5.694;2023-03-20T16:33:00;10.50;99.90
46676;DHT22;32412;51.478;5.694;2023-03-20T16:35:47;10.50;99.90
46676;DHT22;32412;51.478;5.694;2023-03-20T16:38:24;10.50;99.90
46676;DHT22;32412;51.478;5.694;2023-03-20T16:41:14;10.50;99.90
46676;DHT22;32412;51.478;5.694;2023-03-20T16:43:45;10.50;99.90
46676;DHT22;32412;51.478;5.694;2023-03-20T16:46:17;10.50;99.90
46676;DHT22;32412;51.478;5.694;2023-03-20T16:48:44;10.40;99.90
46676;DHT22;32412;51.478;5.694;2023-03-20T16:51:15;10.50;99.90
46676;DHT22;32412;51.478;5.694;2023-03-20T16:53:45;10.50;99.90
46676;DHT22;32412;51.478;5.694;2023-03-20T16:56:33;10.50;99.90
46676;DHT22;32412;51.478;5.694;2023-03-20T16:59:16;10.40;99.90
46676;DHT22;32412;51.478;5.694;2023-03-20T17:01:43;10.50;99.90
46676;DHT22;32412;51.478;5.694;2023-03-20T17:04:20;10.40;99.90
46676;DHT22;32412;51.478;5.694;2023-03-20T17:06:51;10.50;99.90
46676;DHT22;32412;51.478;5.694;2023-03-20T17:09:24;10.40;99.90
46676;DHT22;32412;51.478;5.694;2023-03-20T17:12:19;10.40;99.90
46676;DHT22;32412;51.478;5.694;2023-03-20T17:14:47;10.40;99.90
46676;DHT22;32412;51.478;5.694;2023-03-20T17:17:15;10.40;99.90
46676;DHT22;32412;51.478;5.694;2023-03-20T17:19:41;10.40;99.90
46676;DHT22;32412;51.478;5.694;2023-03-20T17:22:18;10.40;99.90
46676;DHT22;32412;51.478;5.694;2023-03-20T17:24:44;10.40;99.90
46676;DHT22;32412;51.478;5.694;2023-03-20T17:27:11;10.40;99.90
46676;DHT22;32412;51.478;5.694;2023-03-20T17:29:38;10.30;99.90
46676;DHT22;32412;51.478;5.694;2023-03-20T17:32:12;10.20;99.90
46676;DHT22;32412;51.478;5.694;2023-03-20T17:34:38;10.20;99.90
46676;DHT22;32412;51.478;5.694;2023-03-20T17:37:11;10.10;99.90
46676;DHT22;32412;51.478;5.694;2023-03-20T17:39:38;10.10;99.90
46676;DHT22;32412;51.478;5.694;2023-03-20T17:42:18;10.00;99.90
46676;DHT22;32412;51.478;5.694;2023-03-20T17:44:45;10.10;99.90
46676;DHT22;32412;51.478;5.694;2023-03-20T17:47:14;10.00;99.90
46676;DHT22;32412;51.478;5.694;2023-03-20T17:49:41;10.00;99.90
46676;DHT22;32412;51.478;5.694;2023-03-20T17:52:15;10.00;99.90
46676;DHT22;32412;51.478;5.694;2023-03-20T17:54:42;10.10;99.90
46676;DHT22;32412;51.478;5.694;2023-03-20T17:59:44;10.10;99.90
46676;DHT22;32412;51.478;5.694;2023-03-20T18:02:10;10.20;99.90
46676;DHT22;32412;51.478;5.694;2023-03-20T18:04:35;10.20;99.90
46676;DHT22;32412;51.478;5.694;2023-03-20T18:07:02;10.20;99.90
46676;DHT22;32412;51.478;5.694;2023-03-20T18:09:27;10.30;99.90
46676;DHT22;32412;51.478;5.694;2023-03-20T18:11:55;10.30;99.90
46676;DHT22;32412;51.478;5.694;2023-03-20T18:14:21;10.30;99.90
46676;DHT22;32412;51.478;5.694;2023-03-20T18:16:47;10.30;99.90
46676;DHT22;32412;51.478;5.694;2023-03-20T18:19:23;10.30;99.90
46676;DHT22;32412;51.478;5.694;2023-03-20T18:21:50;10.30;99.90
46676;DHT22;32412;51.478;5.694;2023-03-20T18:24:16;10.30;99.90
46676;DHT22;32412;51.478;5.694;2023-03-20T18:26:41;10.30;99.90
46676;DHT22;32412;51.478;5.694;2023-03-20T18:29:10;10.30;99.90
46676;DHT22;32412;51.478;5.694;2023-03-20T18:31:37;10.30;99.90
46676;DHT22;32412;51.478;5.694;2023-03-20T18:34:05;10.30;99.90
46676;DHT22;32412;51.478;5.694;2023-03-20T18:36:31;10.30;99.90
46676;DHT22;32412;51.478;5.694;2023-03-20T18:38:57;10.30;99.90
46676;DHT22;32412;51.478;5.694;2023-03-20T18:41:24;10.30;99.90
46676;DHT22;32412;51.478;5.694;2023-03-20T18:43:50;10.30;99.90
46676;DHT22;32412;51.478;5.694;2023-03-20T18:46:20;10.30;99.90
46676;DHT22;32412;51.478;5.694;2023-03-20T18:48:50;10.30;99.90
46676;DHT22;32412;51.478;5.694;2023-03-20T18:51:17;10.30;99.90
46676;DHT22;32412;51.478;5.694;2023-03-20T18:53:47;10.30;99.90
46676;DHT22;32412;51.478;5.694;2023-03-20T18:56:40;10.30;99.90
46676;DHT22;32412;51.478;5.694;2023-03-20T18:59:12;10.30;99.90
46676;DHT22;32412;51.478;5.694;2023-03-20T19:01:37;10.30;99.90
46676;DHT22;32412;51.478;5.694;2023-03-20T19:04:03;10.30;99.90
46676;DHT22;32412;51.478;5.694;2023-03-20T19:06:29;10.30;99.90
46676;DHT22;32412;51.478;5.694;2023-03-20T19:08:56;10.30;99.90
46676;DHT22;32412;51.478;5.694;2023-03-20T19:11:22;10.30;99.90